sensor_id;sensor_type;location;lat;lon;timestamp;P1;durP1;ratioP1;P2;durP2;ratioP2
8247;SDS011;4164;49.844;8.830;2023-09-12T00:00:54;13.33;;;6.83;;
8247;SDS011;4164;49.844;8.830;2023-09-12T00:03:20;17.00;;;6.87;;
8247;SDS011;4164;49.844;8.830;2023-09-12T00:05:53;14.00;;;6.97;;
8247;SDS011;4164;49.844;8.830;2023-09-12T00:08:21;15.70;;;7.97;;
8247;SDS011;4164;49.844;8.830;2023-09-12T00:10:47;11.43;;;6.90;;
8247;SDS011;4164;49.844;8.830;2023-09-12T00:13:22;11.37;;;7.83;;
8247;SDS011;4164;49.844;8.830;2023-09-12T00:15:48;13.83;;;6.80;;
8247;SDS011;4164;49.844;8.830;2023-09-12T00:18:16;13.57;;;7.13;;
8247;SDS011;4164;49.844;8.830;2023-09-12T00:20:42;14.53;;;6.77;;
8247;SDS011;4164;49.844;8.830;2023-09-12T00:23:07;9.93;;;6.40;;
8247;SDS011;4164;49.844;8.830;2023-09-12T00:25:33;14.00;;;6.93;;
8247;SDS011;4164;49.844;8.830;2023-09-12T00:27:58;13.73;;;7.70;;
8247;SDS011;4164;49.844;8.830;2023-09-12T00:30:24;9.87;;;7.07;;
8247;SDS011;4164;49.844;8.830;2023-09-12T00:32:50;16.27;;;7.43;;
8247;SDS011;4164;49.844;8.830;2023-09-12T00:35:15;14.53;;;8.47;;
8247;SDS011;4164;49.844;8.830;2023-09-12T00:37:41;15.70;;;7.63;;
8247;SDS011;4164;49.844;8.830;2023-09-12T00:40:06;14.10;;;8.13;;
8247;SDS011;4164;49.844;8.830;2023-09-12T00:42:32;13.87;;;6.90;;
8247;SDS011;4164;49.844;8.830;2023-09-12T00:44:58;8.93;;;6.60;;
8247;SDS011;4164;49.844;8.830;2023-09-12T00:47:23;10.70;;;6.47;;
8247;SDS011;4164;49.844;8.830;2023-09-12T00:49:50;12.93;;;7.27;;
8247;SDS011;4164;49.844;8.830;2023-09-12T00:52:17;16.27;;;7.47;;
8247;SDS011;4164;49.844;8.830;2023-09-12T00:54:45;17.37;;;6.80;;
8247;SDS011;4164;49.844;8.830;2023-09-12T00:57:13;11.40;;;6.53;;
8247;SDS011;4164;49.844;8.830;2023-09-12T00:59:39;10.97;;;7.07;;
8247;SDS011;4164;49.844;8.830;2023-09-12T01:02:05;11.20;;;7.00;;
8247;SDS011;4164;49.844;8.830;2023-09-12T01:04:31;12.37;;;7.50;;
8247;SDS011;4164;49.844;8.830;2023-09-12T01:06:58;14.00;;;8.13;;
8247;SDS011;4164;49.844;8.830;2023-09-12T01:09:24;16.60;;;7.57;;
8247;SDS011;4164;49.844;8.830;2023-09-12T01:11:49;12.63;;;7.57;;
8247;SDS011;4164;49.844;8.830;2023-09-12T01:14:15;17.90;;;7.80;;
8247;SDS011;4164;49.844;8.830;2023-09-12T01:16:41;13.77;;;7.77;;
8247;SDS011;4164;49.844;8.830;2023-09-12T01:19:06;12.77;;;8.70;;
8247;SDS011;4164;49.844;8.830;2023-09-12T01:27:18;13.37;;;7.37;;
8247;SDS011;4164;49.844;8.830;2023-09-12T01:29:47;18.90;;;7.90;;
8247;SDS011;4164;49.844;8.830;2023-09-12T01:32:16;15.37;;;7.27;;
8247;SDS011;4164;49.844;8.830;2023-09-12T01:34:44;11.90;;;7.37;;
8247;SDS011;4164;49.844;8.830;2023-09-12T01:37:10;16.10;;;6.23;;
8247;SDS011;4164;49.844;8.830;2023-09-12T01:39:35;15.90;;;6.87;;
8247;SDS011;4164;49.844;8.830;2023-09-12T01:42:01;12.23;;;6.47;;
8247;SDS011;4164;49.844;8.830;2023-09-12T01:44:30;15.73;;;6.53;;
8247;SDS011;4164;49.844;8.830;2023-09-12T01:46:58;12.30;;;6.70;;
8247;SDS011;4164;49.844;8.830;2023-09-12T01:49:29;12.07;;;6.97;;
8247;SDS011;4164;49.844;8.830;2023-09-12T01:51:56;10.90;;;6.47;;
8247;SDS011;4164;49.844;8.830;2023-09-12T01:54:26;12.47;;;6.97;;
8247;SDS011;4164;49.844;8.830;2023-09-12T01:56:53;11.03;;;6.30;;
8247;SDS011;4164;49.844;8.830;2023-09-12T01:59:22;11.43;;;6.60;;
8247;SDS011;4164;49.844;8.830;2023-09-12T02:01:49;9.57;;;6.20;;
8247;SDS011;4164;49.844;8.830;2023-09-12T02:04:17;9.27;;;5.57;;
8247;SDS011;4164;49.844;8.830;2023-09-12T02:06:43;11.33;;;6.10;;
8247;SDS011;4164;49.844;8.830;2023-09-12T02:09:09;8.43;;;6.50;;
8247;SDS011;4164;49.844;8.830;2023-09-12T02:11:37;17.20;;;6.90;;
8247;SDS011;4164;49.844;8.830;2023-09-12T02:14:03;10.07;;;6.40;;
8247;SDS011;4164;49.844;8.830;2023-09-12T02:16:31;17.47;;;6.63;;
8247;SDS011;4164;49.844;8.830;2023-09-12T02:18:57;12.20;;;6.87;;
8247;SDS011;4164;49.844;8.830;2023-09-12T02:21:22;10.83;;;6.33;;
8247;SDS011;4164;49.844;8.830;2023-09-12T02:23:48;12.53;;;6.50;;
8247;SDS011;4164;49.844;8.830;2023-09-12T02:26:13;12.83;;;7.23;;
8247;SDS011;4164;49.844;8.830;2023-09-12T02:28:39;11.83;;;7.13;;
8247;SDS011;4164;49.844;8.830;2023-09-12T02:31:11;15.47;;;7.77;;
8247;SDS011;4164;49.844;8.830;2023-09-12T02:33:37;14.53;;;7.50;;
8247;SDS011;4164;49.844;8.830;2023-09-12T02:36:03;11.40;;;6.93;;
8247;SDS011;4164;49.844;8.830;2023-09-12T02:38:30;9.60;;;7.30;;
8247;SDS011;4164;49.844;8.830;2023-09-12T02:40:55;13.90;;;7.20;;
8247;SDS011;4164;49.844;8.830;2023-09-12T02:43:21;11.30;;;6.40;;
8247;SDS011;4164;49.844;8.830;2023-09-12T02:45:47;16.53;;;7.07;;
8247;SDS011;4164;49.844;8.830;2023-09-12T02:48:12;12.37;;;6.57;;
8247;SDS011;4164;49.844;8.830;2023-09-12T02:50:38;12.67;;;6.57;;
8247;SDS011;4164;49.844;8.830;2023-09-12T02:53:03;10.43;;;6.70;;
8247;SDS011;4164;49.844;8.830;2023-09-12T02:55:29;10.90;;;6.97;;
8247;SDS011;4164;49.844;8.830;2023-09-12T02:57:54;14.77;;;7.87;;
8247;SDS011;4164;49.844;8.830;2023-09-12T03:00:20;12.03;;;7.30;;
8247;SDS011;4164;49.844;8.830;2023-09-12T03:02:46;14.40;;;8.00;;
8247;SDS011;4164;49.844;8.830;2023-09-12T03:05:12;15.77;;;7.93;;
8247;SDS011;4164;49.844;8.830;2023-09-12T03:07:37;14.20;;;7.60;;
8247;SDS011;4164;49.844;8.830;2023-09-12T03:10:03;12.53;;;7.47;;
8247;SDS011;4164;49.844;8.830;2023-09-12T03:12:29;14.93;;;8.77;;
8247;SDS011;4164;49.844;8.830;2023-09-12T03:14:54;13.53;;;7.90;;
8247;SDS011;4164;49.844;8.830;2023-09-12T03:17:21;11.73;;;7.93;;
8247;SDS011;4164;49.844;8.830;2023-09-12T03:19:46;15.13;;;7.57;;
8247;SDS011;4164;49.844;8.830;2023-09-12T03:22:12;15.57;;;7.57;;
8247;SDS011;4164;49.844;8.830;2023-09-12T03:24:37;14.87;;;7.87;;
8247;SDS011;4164;49.844;8.830;2023-09-12T03:27:03;13.73;;;7.33;;
8247;SDS011;4164;49.844;8.830;2023-09-12T03:29:29;13.23;;;7.50;;
8247;SDS011;4164;49.844;8.830;2023-09-12T03:31:54;12.20;;;6.80;;
8247;SDS011;4164;49.844;8.830;2023-09-12T03:34:20;10.87;;;6.93;;
8247;SDS011;4164;49.844;8.830;2023-09-12T03:36:45;14.93;;;7.33;;
8247;SDS011;4164;49.844;8.830;2023-09-12T03:39:11;12.70;;;7.67;;
8247;SDS011;4164;49.844;8.830;2023-09-12T03:41:38;18.17;;;7.83;;
8247;SDS011;4164;49.844;8.830;2023-09-12T03:44:04;13.03;;;7.10;;
8247;SDS011;4164;49.844;8.830;2023-09-12T03:46:30;10.33;;;6.03;;
8247;SDS011;4164;49.844;8.830;2023-09-12T03:48:56;12.53;;;6.90;;
8247;SDS011;4164;49.844;8.830;2023-09-12T03:51:22;10.67;;;7.53;;
8247;SDS011;4164;49.844;8.830;2023-09-12T03:53:47;12.33;;;7.27;;
8247;SDS011;4164;49.844;8.830;2023-09-12T03:56:14;14.10;;;7.50;;
8247;SDS011;4164;49.844;8.830;2023-09-12T03:58:44;16.00;;;8.03;;
8247;SDS011;4164;49.844;8.830;2023-09-12T04:01:10;10.67;;;7.27;;
8247;SDS011;4164;49.844;8.830;2023-09-12T04:03:36;14.77;;;7.20;;
8247;SDS011;4164;49.844;8.830;2023-09-12T04:06:01;14.60;;;7.90;;
8247;SDS011;4164;49.844;8.830;2023-09-12T04:08:27;12.50;;;8.23;;
8247;SDS011;4164;49.844;8.830;2023-09-12T04:10:52;10.53;;;7.53;;
8247;SDS011;4164;49.844;8.830;2023-09-12T04:13:18;16.87;;;8.27;;
8247;SDS011;4164;49.844;8.830;2023-09-12T04:15:44;9.20;;;7.20;;
8247;SDS011;4164;49.844;8.830;2023-09-12T04:18:09;12.03;;;8.40;;
8247;SDS011;4164;49.844;8.830;2023-09-12T04:20:35;14.07;;;9.00;;
8247;SDS011;4164;49.844;8.830;2023-09-12T04:23:01;13.77;;;7.53;;
8247;SDS011;4164;49.844;8.830;2023-09-12T04:25:30;13.20;;;8.07;;
8247;SDS011;4164;49.844;8.830;2023-09-12T04:27:56;11.07;;;7.77;;
8247;SDS011;4164;49.844;8.830;2023-09-12T04:30:21;9.77;;;7.40;;
8247;SDS011;4164;49.844;8.830;2023-09-12T04:32:47;11.17;;;7.60;;
8247;SDS011;4164;49.844;8.830;2023-09-12T04:35:12;17.53;;;8.70;;
8247;SDS011;4164;49.844;8.830;2023-09-12T04:37:38;17.70;;;8.13;;
8247;SDS011;4164;49.844;8.830;2023-09-12T04:40:04;14.27;;;7.37;;
8247;SDS011;4164;49.844;8.830;2023-09-12T04:42:33;14.00;;;7.43;;
8247;SDS011;4164;49.844;8.830;2023-09-12T04:44:59;17.50;;;8.03;;
8247;SDS011;4164;49.844;8.830;2023-09-12T04:47:24;12.70;;;8.00;;
8247;SDS011;4164;49.844;8.830;2023-09-12T04:49:50;11.47;;;7.93;;
8247;SDS011;4164;49.844;8.830;2023-09-12T04:52:15;17.90;;;9.17;;
8247;SDS011;4164;49.844;8.830;2023-09-12T04:54:41;14.80;;;7.97;;
8247;SDS011;4164;49.844;8.830;2023-09-12T04:57:07;13.60;;;9.37;;
8247;SDS011;4164;49.844;8.830;2023-09-12T04:59:32;12.13;;;8.47;;
8247;SDS011;4164;49.844;8.830;2023-09-12T05:01:58;17.27;;;8.83;;
8247;SDS011;4164;49.844;8.830;2023-09-12T05:04:23;14.80;;;9.23;;
8247;SDS011;4164;49.844;8.830;2023-09-12T05:06:49;16.30;;;8.57;;
8247;SDS011;4164;49.844;8.830;2023-09-12T05:09:15;14.13;;;9.17;;
8247;SDS011;4164;49.844;8.830;2023-09-12T05:11:41;16.83;;;10.03;;
8247;SDS011;4164;49.844;8.830;2023-09-12T05:14:06;13.73;;;9.27;;
8247;SDS011;4164;49.844;8.830;2023-09-12T05:16:32;12.47;;;9.07;;
8247;SDS011;4164;49.844;8.830;2023-09-12T05:19:01;14.77;;;8.53;;
8247;SDS011;4164;49.844;8.830;2023-09-12T05:21:32;17.40;;;8.67;;
8247;SDS011;4164;49.844;8.830;2023-09-12T05:24:04;11.93;;;9.27;;
8247;SDS011;4164;49.844;8.830;2023-09-12T05:26:30;14.67;;;9.20;;
8247;SDS011;4164;49.844;8.830;2023-09-12T05:28:56;13.80;;;9.00;;
8247;SDS011;4164;49.844;8.830;2023-09-12T05:31:21;18.80;;;9.43;;
8247;SDS011;4164;49.844;8.830;2023-09-12T05:33:47;15.70;;;8.17;;
8247;SDS011;4164;49.844;8.830;2023-09-12T05:36:13;13.80;;;8.07;;
8247;SDS011;4164;49.844;8.830;2023-09-12T05:38:39;10.43;;;8.10;;
8247;SDS011;4164;49.844;8.830;2023-09-12T05:41:08;16.60;;;8.50;;
8247;SDS011;4164;49.844;8.830;2023-09-12T05:43:34;11.97;;;7.97;;
8247;SDS011;4164;49.844;8.830;2023-09-12T05:45:59;15.80;;;9.23;;
8247;SDS011;4164;49.844;8.830;2023-09-12T05:48:25;14.30;;;8.13;;
8247;SDS011;4164;49.844;8.830;2023-09-12T05:50:50;14.60;;;8.53;;
8247;SDS011;4164;49.844;8.830;2023-09-12T05:53:16;10.43;;;8.30;;
8247;SDS011;4164;49.844;8.830;2023-09-12T05:55:41;15.57;;;8.67;;
8247;SDS011;4164;49.844;8.830;2023-09-12T05:58:07;19.10;;;9.63;;
8247;SDS011;4164;49.844;8.830;2023-09-12T06:00:33;14.50;;;8.73;;
8247;SDS011;4164;49.844;8.830;2023-09-12T06:02:58;18.20;;;9.40;;
8247;SDS011;4164;49.844;8.830;2023-09-12T06:05:24;15.13;;;9.70;;
8247;SDS011;4164;49.844;8.830;2023-09-12T06:07:49;15.40;;;8.90;;
8247;SDS011;4164;49.844;8.830;2023-09-12T06:10:15;15.97;;;9.17;;
8247;SDS011;4164;49.844;8.830;2023-09-12T06:12:41;19.10;;;9.43;;
8247;SDS011;4164;49.844;8.830;2023-09-12T06:15:06;12.03;;;9.63;;
8247;SDS011;4164;49.844;8.830;2023-09-12T06:17:35;19.90;;;9.83;;
8247;SDS011;4164;49.844;8.830;2023-09-12T06:20:03;25.00;;;10.40;;
8247;SDS011;4164;49.844;8.830;2023-09-12T06:22:31;21.77;;;9.60;;
8247;SDS011;4164;49.844;8.830;2023-09-12T06:24:57;11.53;;;8.57;;
8247;SDS011;4164;49.844;8.830;2023-09-12T06:27:22;16.30;;;9.90;;
8247;SDS011;4164;49.844;8.830;2023-09-12T06:29:48;15.00;;;9.23;;
8247;SDS011;4164;49.844;8.830;2023-09-12T06:32:14;16.73;;;9.00;;
8247;SDS011;4164;49.844;8.830;2023-09-12T06:34:41;18.13;;;8.93;;
8247;SDS011;4164;49.844;8.830;2023-09-12T06:37:07;18.77;;;9.17;;
8247;SDS011;4164;49.844;8.830;2023-09-12T06:39:32;16.07;;;9.33;;
8247;SDS011;4164;49.844;8.830;2023-09-12T06:41:58;14.00;;;8.87;;
8247;SDS011;4164;49.844;8.830;2023-09-12T06:44:23;12.20;;;8.53;;
8247;SDS011;4164;49.844;8.830;2023-09-12T06:46:49;15.47;;;9.37;;
8247;SDS011;4164;49.844;8.830;2023-09-12T06:49:14;16.63;;;9.00;;
8247;SDS011;4164;49.844;8.830;2023-09-12T06:51:40;17.53;;;9.40;;
8247;SDS011;4164;49.844;8.830;2023-09-12T06:54:05;16.87;;;9.03;;
8247;SDS011;4164;49.844;8.830;2023-09-12T06:56:31;15.27;;;9.00;;
8247;SDS011;4164;49.844;8.830;2023-09-12T06:58:57;14.03;;;9.23;;
8247;SDS011;4164;49.844;8.830;2023-09-12T07:01:24;17.80;;;9.77;;
8247;SDS011;4164;49.844;8.830;2023-09-12T07:03:50;14.47;;;9.50;;
8247;SDS011;4164;49.844;8.830;2023-09-12T07:06:18;12.30;;;8.77;;
8247;SDS011;4164;49.844;8.830;2023-09-12T07:08:44;14.27;;;8.40;;
8247;SDS011;4164;49.844;8.830;2023-09-12T07:11:09;15.27;;;8.30;;
8247;SDS011;4164;49.844;8.830;2023-09-12T07:13:35;16.37;;;7.97;;
8247;SDS011;4164;49.844;8.830;2023-09-12T07:16:00;14.43;;;8.53;;
8247;SDS011;4164;49.844;8.830;2023-09-12T07:18:29;11.67;;;8.00;;
8247;SDS011;4164;49.844;8.830;2023-09-12T07:20:58;11.57;;;8.17;;
8247;SDS011;4164;49.844;8.830;2023-09-12T07:23:28;12.67;;;8.07;;
8247;SDS011;4164;49.844;8.830;2023-09-12T07:25:54;15.23;;;8.27;;
8247;SDS011;4164;49.844;8.830;2023-09-12T07:28:22;15.00;;;8.83;;
8247;SDS011;4164;49.844;8.830;2023-09-12T07:30:48;18.23;;;9.30;;
8247;SDS011;4164;49.844;8.830;2023-09-12T07:33:14;13.20;;;8.73;;
8247;SDS011;4164;49.844;8.830;2023-09-12T07:35:39;12.03;;;9.00;;
8247;SDS011;4164;49.844;8.830;2023-09-12T07:38:05;13.47;;;8.73;;
8247;SDS011;4164;49.844;8.830;2023-09-12T07:40:30;12.70;;;8.67;;
8247;SDS011;4164;49.844;8.830;2023-09-12T07:42:56;12.53;;;9.00;;
8247;SDS011;4164;49.844;8.830;2023-09-12T07:45:21;18.10;;;7.83;;
8247;SDS011;4164;49.844;8.830;2023-09-12T07:47:47;13.77;;;7.43;;
8247;SDS011;4164;49.844;8.830;2023-09-12T07:50:13;12.30;;;7.70;;
8247;SDS011;4164;49.844;8.830;2023-09-12T07:52:39;11.23;;;7.40;;
8247;SDS011;4164;49.844;8.830;2023-09-12T07:55:04;12.40;;;7.87;;
8247;SDS011;4164;49.844;8.830;2023-09-12T07:57:31;10.47;;;7.20;;
8247;SDS011;4164;49.844;8.830;2023-09-12T07:59:57;15.27;;;7.50;;
8247;SDS011;4164;49.844;8.830;2023-09-12T08:02:23;14.30;;;7.47;;
8247;SDS011;4164;49.844;8.830;2023-09-12T08:04:49;17.30;;;7.77;;
8247;SDS011;4164;49.844;8.830;2023-09-12T08:07:24;12.70;;;8.33;;
8247;SDS011;4164;49.844;8.830;2023-09-12T08:09:56;9.87;;;7.17;;
8247;SDS011;4164;49.844;8.830;2023-09-12T08:12:23;16.13;;;7.57;;
8247;SDS011;4164;49.844;8.830;2023-09-12T08:14:50;13.20;;;7.40;;
8247;SDS011;4164;49.844;8.830;2023-09-12T08:17:16;15.37;;;7.97;;
8247;SDS011;4164;49.844;8.830;2023-09-12T08:19:42;13.13;;;7.27;;
8247;SDS011;4164;49.844;8.830;2023-09-12T08:22:09;14.13;;;7.40;;
8247;SDS011;4164;49.844;8.830;2023-09-12T08:24:35;8.43;;;6.90;;
8247;SDS011;4164;49.844;8.830;2023-09-12T08:27:02;18.27;;;7.70;;
8247;SDS011;4164;49.844;8.830;2023-09-12T08:29:28;13.17;;;7.73;;
8247;SDS011;4164;49.844;8.830;2023-09-12T08:31:55;16.13;;;7.83;;
8247;SDS011;4164;49.844;8.830;2023-09-12T08:34:20;13.00;;;7.67;;
8247;SDS011;4164;49.844;8.830;2023-09-12T08:36:46;13.67;;;7.33;;
8247;SDS011;4164;49.844;8.830;2023-09-12T08:39:14;13.93;;;7.77;;
8247;SDS011;4164;49.844;8.830;2023-09-12T08:41:44;12.40;;;7.10;;
8247;SDS011;4164;49.844;8.830;2023-09-12T08:44:12;10.77;;;6.73;;
8247;SDS011;4164;49.844;8.830;2023-09-12T08:46:42;14.17;;;6.33;;
8247;SDS011;4164;49.844;8.830;2023-09-12T08:49:09;11.97;;;6.73;;
8247;SDS011;4164;49.844;8.830;2023-09-12T08:51:36;15.23;;;7.23;;
8247;SDS011;4164;49.844;8.830;2023-09-12T08:54:02;11.70;;;6.83;;
8247;SDS011;4164;49.844;8.830;2023-09-12T08:56:31;11.83;;;6.50;;
8247;SDS011;4164;49.844;8.830;2023-09-12T08:58:59;13.67;;;6.33;;
8247;SDS011;4164;49.844;8.830;2023-09-12T09:01:26;14.13;;;6.77;;
8247;SDS011;4164;49.844;8.830;2023-09-12T09:03:54;18.30;;;6.80;;
8247;SDS011;4164;49.844;8.830;2023-09-12T09:06:21;11.90;;;6.33;;
8247;SDS011;4164;49.844;8.830;2023-09-12T09:08:48;10.03;;;6.27;;
8247;SDS011;4164;49.844;8.830;2023-09-12T09:11:17;13.43;;;6.07;;
8247;SDS011;4164;49.844;8.830;2023-09-12T09:13:43;10.57;;;6.57;;
8247;SDS011;4164;49.844;8.830;2023-09-12T09:16:09;11.70;;;6.00;;
8247;SDS011;4164;49.844;8.830;2023-09-12T09:18:52;11.47;;;6.40;;
8247;SDS011;4164;49.844;8.830;2023-09-12T09:21:31;11.67;;;5.80;;
8247;SDS011;4164;49.844;8.830;2023-09-12T09:24:02;12.47;;;6.77;;
8247;SDS011;4164;49.844;8.830;2023-09-12T09:26:44;8.23;;;5.83;;
8247;SDS011;4164;49.844;8.830;2023-09-12T09:29:12;7.00;;;5.47;;
8247;SDS011;4164;49.844;8.830;2023-09-12T09:31:40;9.23;;;5.83;;
8247;SDS011;4164;49.844;8.830;2023-09-12T09:34:13;11.17;;;5.83;;
8247;SDS011;4164;49.844;8.830;2023-09-12T09:36:40;9.93;;;5.63;;
8247;SDS011;4164;49.844;8.830;2023-09-12T09:39:07;13.57;;;6.03;;
8247;SDS011;4164;49.844;8.830;2023-09-12T09:41:33;11.90;;;6.10;;
8247;SDS011;4164;49.844;8.830;2023-09-12T09:43:59;12.60;;;5.90;;
8247;SDS011;4164;49.844;8.830;2023-09-12T09:46:25;9.03;;;5.63;;
8247;SDS011;4164;49.844;8.830;2023-09-12T09:48:51;11.93;;;5.70;;
8247;SDS011;4164;49.844;8.830;2023-09-12T09:51:17;9.37;;;5.47;;
8247;SDS011;4164;49.844;8.830;2023-09-12T09:53:43;11.87;;;5.20;;
8247;SDS011;4164;49.844;8.830;2023-09-12T09:56:12;7.90;;;5.63;;
8247;SDS011;4164;49.844;8.830;2023-09-12T09:58:57;9.60;;;5.90;;
8247;SDS011;4164;49.844;8.830;2023-09-12T10:01:23;10.93;;;5.40;;
8247;SDS011;4164;49.844;8.830;2023-09-12T10:03:52;12.23;;;5.63;;
8247;SDS011;4164;49.844;8.830;2023-09-12T10:06:27;12.50;;;6.43;;
8247;SDS011;4164;49.844;8.830;2023-09-12T10:08:54;8.97;;;5.70;;
8247;SDS011;4164;49.844;8.830;2023-09-12T10:11:23;11.27;;;6.00;;
8247;SDS011;4164;49.844;8.830;2023-09-12T10:13:51;14.27;;;6.37;;
8247;SDS011;4164;49.844;8.830;2023-09-12T10:16:20;13.17;;;6.43;;
8247;SDS011;4164;49.844;8.830;2023-09-12T10:18:55;13.50;;;6.43;;
8247;SDS011;4164;49.844;8.830;2023-09-12T10:24:31;13.97;;;6.40;;
8247;SDS011;4164;49.844;8.830;2023-09-12T10:26:59;12.67;;;6.30;;
8247;SDS011;4164;49.844;8.830;2023-09-12T10:29:26;12.07;;;6.43;;
8247;SDS011;4164;49.844;8.830;2023-09-12T10:31:52;16.00;;;6.80;;
8247;SDS011;4164;49.844;8.830;2023-09-12T10:34:18;13.33;;;6.23;;
8247;SDS011;4164;49.844;8.830;2023-09-12T10:36:49;11.77;;;6.27;;
8247;SDS011;4164;49.844;8.830;2023-09-12T10:39:16;14.77;;;7.13;;
8247;SDS011;4164;49.844;8.830;2023-09-12T10:41:44;11.13;;;6.43;;
8247;SDS011;4164;49.844;8.830;2023-09-12T10:44:16;16.63;;;6.83;;
8247;SDS011;4164;49.844;8.830;2023-09-12T10:46:43;11.33;;;6.30;;
8247;SDS011;4164;49.844;8.830;2023-09-12T10:49:10;12.60;;;6.70;;
8247;SDS011;4164;49.844;8.830;2023-09-12T10:51:38;9.93;;;5.77;;
8247;SDS011;4164;49.844;8.830;2023-09-12T10:54:05;19.27;;;7.23;;
8247;SDS011;4164;49.844;8.830;2023-09-12T10:56:32;14.93;;;6.77;;
8247;SDS011;4164;49.844;8.830;2023-09-12T11:01:29;17.23;;;7.90;;
8247;SDS011;4164;49.844;8.830;2023-09-12T11:03:55;10.17;;;7.00;;
8247;SDS011;4164;49.844;8.830;2023-09-12T11:06:30;14.13;;;7.97;;
8247;SDS011;4164;49.844;8.830;2023-09-12T11:11:46;14.63;;;7.50;;
8247;SDS011;4164;49.844;8.830;2023-09-12T11:14:13;10.93;;;7.47;;
8247;SDS011;4164;49.844;8.830;2023-09-12T11:16:40;15.97;;;8.30;;
8247;SDS011;4164;49.844;8.830;2023-09-12T11:19:16;15.43;;;8.10;;
8247;SDS011;4164;49.844;8.830;2023-09-12T11:21:47;10.83;;;7.70;;
8247;SDS011;4164;49.844;8.830;2023-09-12T11:24:17;16.83;;;7.80;;
8247;SDS011;4164;49.844;8.830;2023-09-12T11:29:26;11.43;;;7.87;;
8247;SDS011;4164;49.844;8.830;2023-09-12T11:31:54;12.57;;;7.10;;
8247;SDS011;4164;49.844;8.830;2023-09-12T11:34:27;14.43;;;7.20;;
8247;SDS011;4164;49.844;8.830;2023-09-12T11:36:55;10.90;;;7.13;;
8247;SDS011;4164;49.844;8.830;2023-09-12T11:39:23;12.70;;;7.60;;
8247;SDS011;4164;49.844;8.830;2023-09-12T11:41:50;12.07;;;7.13;;
8247;SDS011;4164;49.844;8.830;2023-09-12T11:44:16;12.60;;;7.57;;
8247;SDS011;4164;49.844;8.830;2023-09-12T11:46:43;12.90;;;7.53;;
8247;SDS011;4164;49.844;8.830;2023-09-12T11:49:11;12.87;;;7.50;;
8247;SDS011;4164;49.844;8.830;2023-09-12T11:51:45;10.73;;;6.73;;
8247;SDS011;4164;49.844;8.830;2023-09-12T11:54:21;10.97;;;6.77;;
8247;SDS011;4164;49.844;8.830;2023-09-12T11:56:50;9.97;;;7.27;;
8247;SDS011;4164;49.844;8.830;2023-09-12T11:59:22;8.95;;;6.93;;
8247;SDS011;4164;49.844;8.830;2023-09-12T12:01:48;9.52;;;6.32;;
8247;SDS011;4164;49.844;8.830;2023-09-12T12:04:14;9.55;;;6.68;;
8247;SDS011;4164;49.844;8.830;2023-09-12T12:06:40;10.90;;;6.57;;
8247;SDS011;4164;49.844;8.830;2023-09-12T12:09:09;8.93;;;6.63;;
8247;SDS011;4164;49.844;8.830;2023-09-12T12:11:35;13.98;;;6.65;;
8247;SDS011;4164;49.844;8.830;2023-09-12T12:14:11;11.55;;;6.57;;
8247;SDS011;4164;49.844;8.830;2023-09-12T12:16:38;14.07;;;7.32;;
8247;SDS011;4164;49.844;8.830;2023-09-12T12:19:04;8.48;;;6.35;;
8247;SDS011;4164;49.844;8.830;2023-09-12T12:21:30;14.73;;;7.05;;
8247;SDS011;4164;49.844;8.830;2023-09-12T12:24:02;11.65;;;6.13;;
8247;SDS011;4164;49.844;8.830;2023-09-12T12:26:29;7.60;;;6.80;;
8247;SDS011;4164;49.844;8.830;2023-09-12T12:28:55;15.82;;;6.60;;
8247;SDS011;4164;49.844;8.830;2023-09-12T12:31:21;9.80;;;6.90;;
8247;SDS011;4164;49.844;8.830;2023-09-12T12:33:49;10.00;;;7.07;;
8247;SDS011;4164;49.844;8.830;2023-09-12T12:36:18;10.07;;;6.40;;
8247;SDS011;4164;49.844;8.830;2023-09-12T12:38:45;10.67;;;7.67;;
8247;SDS011;4164;49.844;8.830;2023-09-12T12:41:13;9.33;;;7.17;;
8247;SDS011;4164;49.844;8.830;2023-09-12T12:43:48;10.63;;;7.00;;
8247;SDS011;4164;49.844;8.830;2023-09-12T12:46:16;7.43;;;6.67;;
8247;SDS011;4164;49.844;8.830;2023-09-12T12:48:45;12.53;;;7.87;;
8247;SDS011;4164;49.844;8.830;2023-09-12T12:51:14;12.80;;;7.87;;
8247;SDS011;4164;49.844;8.830;2023-09-12T12:53:42;9.17;;;7.43;;
8247;SDS011;4164;49.844;8.830;2023-09-12T12:56:26;12.13;;;7.57;;
8247;SDS011;4164;49.844;8.830;2023-09-12T12:58:56;9.93;;;7.30;;
8247;SDS011;4164;49.844;8.830;2023-09-12T13:01:23;9.53;;;7.33;;
8247;SDS011;4164;49.844;8.830;2023-09-12T13:03:50;11.23;;;6.70;;
8247;SDS011;4164;49.844;8.830;2023-09-12T13:06:16;8.60;;;6.93;;
8247;SDS011;4164;49.844;8.830;2023-09-12T13:08:45;9.97;;;6.93;;
8247;SDS011;4164;49.844;8.830;2023-09-12T13:11:14;11.27;;;7.37;;
8247;SDS011;4164;49.844;8.830;2023-09-12T13:13:41;11.80;;;7.37;;
8247;SDS011;4164;49.844;8.830;2023-09-12T13:16:08;11.13;;;7.63;;
8247;SDS011;4164;49.844;8.830;2023-09-12T13:18:36;10.07;;;7.43;;
8247;SDS011;4164;49.844;8.830;2023-09-12T13:21:02;12.60;;;7.43;;
8247;SDS011;4164;49.844;8.830;2023-09-12T13:23:28;12.07;;;7.50;;
8247;SDS011;4164;49.844;8.830;2023-09-12T13:25:54;12.30;;;8.20;;
8247;SDS011;4164;49.844;8.830;2023-09-12T13:28:20;9.67;;;7.33;;
8247;SDS011;4164;49.844;8.830;2023-09-12T13:30:50;9.03;;;7.33;;
8247;SDS011;4164;49.844;8.830;2023-09-12T13:33:16;11.00;;;7.73;;
8247;SDS011;4164;49.844;8.830;2023-09-12T13:35:41;12.67;;;8.03;;
8247;SDS011;4164;49.844;8.830;2023-09-12T13:38:07;13.00;;;8.07;;
8247;SDS011;4164;49.844;8.830;2023-09-12T13:40:39;8.13;;;7.33;;
8247;SDS011;4164;49.844;8.830;2023-09-12T13:43:05;8.03;;;6.80;;
8247;SDS011;4164;49.844;8.830;2023-09-12T13:45:31;9.77;;;7.10;;
8247;SDS011;4164;49.844;8.830;2023-09-12T13:47:58;10.20;;;6.53;;
8247;SDS011;4164;49.844;8.830;2023-09-12T13:50:27;12.93;;;7.33;;
8247;SDS011;4164;49.844;8.830;2023-09-12T13:52:59;8.83;;;6.27;;
8247;SDS011;4164;49.844;8.830;2023-09-12T13:55:31;10.50;;;6.50;;
8247;SDS011;4164;49.844;8.830;2023-09-12T13:57:58;11.23;;;7.83;;
8247;SDS011;4164;49.844;8.830;2023-09-12T14:00:24;10.57;;;7.00;;
8247;SDS011;4164;49.844;8.830;2023-09-12T14:02:52;12.60;;;7.27;;
8247;SDS011;4164;49.844;8.830;2023-09-12T14:05:18;11.93;;;7.10;;
8247;SDS011;4164;49.844;8.830;2023-09-12T14:07:43;11.60;;;6.80;;
8247;SDS011;4164;49.844;8.830;2023-09-12T14:10:09;12.00;;;7.50;;
8247;SDS011;4164;49.844;8.830;2023-09-12T14:12:35;7.90;;;7.10;;
8247;SDS011;4164;49.844;8.830;2023-09-12T14:15:00;9.67;;;8.20;;
8247;SDS011;4164;49.844;8.830;2023-09-12T14:17:28;12.10;;;7.77;;
8247;SDS011;4164;49.844;8.830;2023-09-12T14:19:54;10.97;;;7.80;;
8247;SDS011;4164;49.844;8.830;2023-09-12T14:22:20;17.40;;;8.23;;
8247;SDS011;4164;49.844;8.830;2023-09-12T14:24:46;10.20;;;8.17;;
8247;SDS011;4164;49.844;8.830;2023-09-12T14:27:12;14.30;;;8.33;;
8247;SDS011;4164;49.844;8.830;2023-09-12T14:29:37;11.67;;;8.10;;
8247;SDS011;4164;49.844;8.830;2023-09-12T14:32:03;9.83;;;7.73;;
8247;SDS011;4164;49.844;8.830;2023-09-12T14:34:29;12.03;;;8.03;;
8247;SDS011;4164;49.844;8.830;2023-09-12T14:36:57;10.77;;;8.30;;
8247;SDS011;4164;49.844;8.830;2023-09-12T14:39:23;13.93;;;8.83;;
8247;SDS011;4164;49.844;8.830;2023-09-12T14:41:49;14.77;;;8.10;;
8247;SDS011;4164;49.844;8.830;2023-09-12T14:44:23;11.93;;;7.83;;
8247;SDS011;4164;49.844;8.830;2023-09-12T14:46:49;13.03;;;8.20;;
8247;SDS011;4164;49.844;8.830;2023-09-12T14:49:17;12.50;;;8.20;;
8247;SDS011;4164;49.844;8.830;2023-09-12T14:51:43;10.17;;;8.10;;
8247;SDS011;4164;49.844;8.830;2023-09-12T14:54:12;10.67;;;7.60;;
8247;SDS011;4164;49.844;8.830;2023-09-12T14:56:38;10.03;;;7.80;;
8247;SDS011;4164;49.844;8.830;2023-09-12T14:59:04;8.57;;;7.20;;
8247;SDS011;4164;49.844;8.830;2023-09-12T15:01:30;10.17;;;7.67;;
8247;SDS011;4164;49.844;8.830;2023-09-12T15:03:59;10.70;;;7.10;;
8247;SDS011;4164;49.844;8.830;2023-09-12T15:06:25;11.03;;;7.10;;
8247;SDS011;4164;49.844;8.830;2023-09-12T15:08:51;9.07;;;5.97;;
8247;SDS011;4164;49.844;8.830;2023-09-12T15:11:17;9.80;;;6.27;;
8247;SDS011;4164;49.844;8.830;2023-09-12T15:13:42;6.97;;;5.80;;
8247;SDS011;4164;49.844;8.830;2023-09-12T15:16:09;9.03;;;6.03;;
8247;SDS011;4164;49.844;8.830;2023-09-12T15:18:35;9.07;;;6.50;;